Oak Grove, Arkansas
Current Conditions -  °F | °C
As of 2:45 PM on Saturday 25 Oct 2014 (Local Time) from KBBG Reporting Station
Clear Clear  
Wind Chill: 29°   Ceiling: Unl
Heat Index: 29°   Visibility: 10mi
Dew Point: 17°   Wind: 6mph
Humidity: 48%   Direction: 330°NNW
Pressure: 30.06"   Gusts: NA
Location:  36.46°N, 93.44°W
Report Text: KBBG 251945Z 33005KT 10SM CLR 29/17 A3006
Loading
Personal Weather Stations






























Interactive Weather Map
Tropical Storm Tracking
New forecast layout! Learn more

10-Day Weather Forecast

Advertisements
Track Severe Weather on mobile